This is the latest recevied weather packets stored in our database for station/object LU4EGV-13. If no packets are shown the sender has not sent any weather packets the latest 10 day(s).
| Time | Temp. | Humidity | Pressure | Rain* | Wind** | Luminosity | Snow |
|---|---|---|---|---|---|---|---|
| 1778004687 | 25.56° C | 61% | 1011.1 hPa | 0 mm | - | - | - |
| 1778004086 | 26.11° C | 59% | 1011.4 hPa | 0 mm | - | - | - |
| 1778003473 | 26.67° C | 61% | 1011.1 hPa | 0 mm | - | - | - |
| 1778002867 | 26.11° C | 61% | 1011.3 hPa | 0 mm | - | - | - |
| 1778002261 | 25.56° C | 63% | 1011.3 hPa | 0 mm | - | - | - |
| 1778001655 | 25° C | 62% | 1011.4 hPa | 0 mm | - | - | - |
| 1778001060 | 24.44° C | 63% | 1011.6 hPa | 0 mm | - | - | - |
| 1778000442 | 25° C | 59% | 1011.4 hPa | 0 mm | - | - | - |
| 1777999837 | 26.67° C | 56% | 1011.4 hPa | 0 mm | - | - | - |
| 1777999232 | 26.67° C | 56% | 1011.2 hPa | 0 mm | - | - | - |
| 1777998629 | 27.22° C | 53% | 1011.2 hPa | 0 mm | - | - | - |
| 1777998025 | 27.22° C | 54% | 1011.2 hPa | 0 mm | - | - | - |
| 1777997411 | 27.78° C | 55% | 1011.5 hPa | 0 mm | - | - | - |
| 1777996805 | 27.22° C | 55% | 1011.2 hPa | 0 mm | - | - | - |
| 1777996199 | 26.11° C | 59% | 1011.3 hPa | 0 mm | - | - | - |
| 1777995594 | 25.56° C | 60% | 1011.2 hPa | 0 mm | - | - | - |
| 1777994986 | 25.56° C | 62% | 1011 hPa | 0 mm | - | - | - |
| 1777994380 | 23.89° C | 69% | 1011.4 hPa | 0 mm | - | - | - |
| 1777993774 | 21.67° C | 77% | 1011.8 hPa | 0 mm | - | - | - |
| 1777993168 | 20.56° C | 78% | 1012.5 hPa | 0 mm | - | - | - |
| 1777992562 | 20° C | 78% | 1012.5 hPa | 0 mm | - | - | - |
| 1777991957 | 20° C | 79% | 1012.6 hPa | 0 mm | - | - | - |
| 1777991349 | 20° C | 78% | 1012.3 hPa | 0 mm | - | - | - |
| 1777990743 | 20° C | 79% | 1012.6 hPa | 0 mm | - | - | - |
| 1777989530 | 20° C | 81% | 1012.2 hPa | 0 mm | - | - | - |
* Rain latest hour (hover to see other rain measurements)
** Current wind speed in m/s (hover to see current wind gust speed)